Bay Saint Louis, Mississippi
Current Conditions -  °F | °C
As of 4:53 AM on Monday 22 Dec 2014 (Local Time) from KGPT Reporting Station
Overcast Overcast  
Wind Chill: 58°   Ceiling: 600
Heat Index: 58°   Visibility: 8mi
Dew Point: 56°   Wind: 6mph
Humidity: 93%   Direction: 100°E
Pressure: 29.87"   Gusts: NA
Location:  30.31°N, 89.33°W
Report Text: KGPT 221053Z AUTO 10005KT 8SM OVC006 14/13 A2987 RMK AO2 SLP114 T01440133 TSNO
Loading
Personal Weather Stations






























Interactive Weather Map New forecast layout! Learn more

10-Day Weather Forecast

Advertisements
Track Severe Weather on mobile